Terminal Aerodrome Forecast
Issued by NWS

Home | Current Version | Previous Version | Text Only | Print | Product List | Glossary On
Versions: 1 2 3 4 5 6 7 8 9 10 11 12 13 14 15 16 17 18 19 20 21 22 23
000
FTUS46 KLOX 291100 RRA
TAFWJF
TAF
KWJF 291146Z 2912/3012 VRB04KT P6SM BKN170
     FM292100 05007KT P6SM BKN150
     FM300300 26007KT P6SM BKN100 OVC120=

USA.gov is the U.S. government's official web portal to all federal, state and local government web resources and services.